sensor_id;sensor_type;location;lat;lon;timestamp;temperature;humidity
19363;DHT22;9817;50.80926400;5.16316200;2022-07-10T00:00:32;16.40;99.90
19363;DHT22;9817;50.80926400;5.16316200;2022-07-10T00:02:58;16.30;99.90
19363;DHT22;9817;50.80926400;5.16316200;2022-07-10T00:05:24;16.30;99.90
19363;DHT22;9817;50.80926400;5.16316200;2022-07-10T00:07:51;16.30;99.90
19363;DHT22;9817;50.80926400;5.16316200;2022-07-10T00:10:18;16.30;99.90
19363;DHT22;9817;50.80926400;5.16316200;2022-07-10T00:12:45;16.20;99.90
19363;DHT22;9817;50.80926400;5.16316200;2022-07-10T00:15:12;16.10;99.90
19363;DHT22;9817;50.80926400;5.16316200;2022-07-10T00:17:37;16.10;99.90
19363;DHT22;9817;50.80926400;5.16316200;2022-07-10T00:20:05;16.00;99.90
19363;DHT22;9817;50.80926400;5.16316200;2022-07-10T00:22:33;16.10;99.90
19363;DHT22;9817;50.80926400;5.16316200;2022-07-10T00:25:01;16.00;99.90
19363;DHT22;9817;50.80926400;5.16316200;2022-07-10T00:27:26;15.90;99.90
19363;DHT22;9817;50.80926400;5.16316200;2022-07-10T00:29:52;15.90;99.90
19363;DHT22;9817;50.80926400;5.16316200;2022-07-10T00:32:17;15.90;99.90
19363;DHT22;9817;50.80926400;5.16316200;2022-07-10T00:34:43;15.90;99.90
19363;DHT22;9817;50.80926400;5.16316200;2022-07-10T00:37:08;15.90;99.90
19363;DHT22;9817;50.80926400;5.16316200;2022-07-10T00:39:34;15.90;99.90
19363;DHT22;9817;50.80926400;5.16316200;2022-07-10T00:42:08;15.80;99.90
19363;DHT22;9817;50.80926400;5.16316200;2022-07-10T00:44:34;15.70;99.90
19363;DHT22;9817;50.80926400;5.16316200;2022-07-10T00:47:00;15.70;99.90
19363;DHT22;9817;50.80926400;5.16316200;2022-07-10T00:49:25;15.70;99.90
19363;DHT22;9817;50.80926400;5.16316200;2022-07-10T00:51:51;15.70;99.90
19363;DHT22;9817;50.80926400;5.16316200;2022-07-10T00:54:18;15.70;99.90
19363;DHT22;9817;50.80926400;5.16316200;2022-07-10T00:56:44;15.70;99.90
19363;DHT22;9817;50.80926400;5.16316200;2022-07-10T00:59:10;15.60;99.90
19363;DHT22;9817;50.80926400;5.16316200;2022-07-10T01:01:36;15.60;99.90
19363;DHT22;9817;50.80926400;5.16316200;2022-07-10T01:04:02;15.60;99.90
19363;DHT22;9817;50.80926400;5.16316200;2022-07-10T01:06:28;15.50;99.90
19363;DHT22;9817;50.80926400;5.16316200;2022-07-10T01:08:53;15.40;99.90
19363;DHT22;9817;50.80926400;5.16316200;2022-07-10T01:11:20;15.40;99.90
19363;DHT22;9817;50.80926400;5.16316200;2022-07-10T01:13:47;15.40;99.90
19363;DHT22;9817;50.80926400;5.16316200;2022-07-10T01:16:12;15.40;99.90
19363;DHT22;9817;50.80926400;5.16316200;2022-07-10T01:18:38;15.30;99.90
19363;DHT22;9817;50.80926400;5.16316200;2022-07-10T01:21:04;15.40;99.90
19363;DHT22;9817;50.80926400;5.16316200;2022-07-10T01:23:30;15.40;99.90
19363;DHT22;9817;50.80926400;5.16316200;2022-07-10T01:25:56;15.30;99.90
19363;DHT22;9817;50.80926400;5.16316200;2022-07-10T01:28:22;15.30;99.90
19363;DHT22;9817;50.80926400;5.16316200;2022-07-10T01:30:48;15.30;99.90
19363;DHT22;9817;50.80926400;5.16316200;2022-07-10T01:33:14;15.30;99.90
19363;DHT22;9817;50.80926400;5.16316200;2022-07-10T01:35:40;15.30;99.90
19363;DHT22;9817;50.80926400;5.16316200;2022-07-10T01:38:06;15.20;99.90
19363;DHT22;9817;50.80926400;5.16316200;2022-07-10T01:40:32;15.10;99.90
19363;DHT22;9817;50.80926400;5.16316200;2022-07-10T01:42:58;15.10;99.90
19363;DHT22;9817;50.80926400;5.16316200;2022-07-10T01:45:24;15.00;99.90
19363;DHT22;9817;50.80926400;5.16316200;2022-07-10T01:47:50;14.90;99.90
19363;DHT22;9817;50.80926400;5.16316200;2022-07-10T01:50:16;15.00;99.90
19363;DHT22;9817;50.80926400;5.16316200;2022-07-10T01:52:42;15.00;99.90
19363;DHT22;9817;50.80926400;5.16316200;2022-07-10T01:55:08;14.90;99.90
19363;DHT22;9817;50.80926400;5.16316200;2022-07-10T01:57:34;14.90;99.90
19363;DHT22;9817;50.80926400;5.16316200;2022-07-10T02:00:00;14.90;99.90
19363;DHT22;9817;50.80926400;5.16316200;2022-07-10T02:02:25;14.80;99.90
19363;DHT22;9817;50.80926400;5.16316200;2022-07-10T02:04:51;14.80;99.90
19363;DHT22;9817;50.80926400;5.16316200;2022-07-10T02:07:18;14.80;99.90
19363;DHT22;9817;50.80926400;5.16316200;2022-07-10T02:09:47;14.90;99.90
19363;DHT22;9817;50.80926400;5.16316200;2022-07-10T02:12:14;14.90;99.90
19363;DHT22;9817;50.80926400;5.16316200;2022-07-10T02:14:42;14.80;99.90
19363;DHT22;9817;50.80926400;5.16316200;2022-07-10T02:17:08;14.90;99.90
19363;DHT22;9817;50.80926400;5.16316200;2022-07-10T02:19:34;14.80;99.90
19363;DHT22;9817;50.80926400;5.16316200;2022-07-10T02:22:00;14.80;99.90
19363;DHT22;9817;50.80926400;5.16316200;2022-07-10T02:24:26;14.80;99.90
19363;DHT22;9817;50.80926400;5.16316200;2022-07-10T02:26:52;14.70;99.90
19363;DHT22;9817;50.80926400;5.16316200;2022-07-10T02:29:18;14.60;99.90
19363;DHT22;9817;50.80926400;5.16316200;2022-07-10T02:31:44;14.60;99.90
19363;DHT22;9817;50.80926400;5.16316200;2022-07-10T02:34:10;14.50;99.90
19363;DHT22;9817;50.80926400;5.16316200;2022-07-10T02:36:37;14.50;99.90
19363;DHT22;9817;50.80926400;5.16316200;2022-07-10T02:39:07;14.40;99.90
19363;DHT22;9817;50.80926400;5.16316200;2022-07-10T02:41:34;14.40;99.90
19363;DHT22;9817;50.80926400;5.16316200;2022-07-10T02:44:01;14.40;99.90
19363;DHT22;9817;50.80926400;5.16316200;2022-07-10T02:46:27;14.40;99.90
19363;DHT22;9817;50.80926400;5.16316200;2022-07-10T02:48:53;14.30;99.90
19363;DHT22;9817;50.80926400;5.16316200;2022-07-10T02:51:19;14.30;99.90
19363;DHT22;9817;50.80926400;5.16316200;2022-07-10T02:53:44;14.20;99.90
19363;DHT22;9817;50.80926400;5.16316200;2022-07-10T02:56:10;14.30;99.90
19363;DHT22;9817;50.80926400;5.16316200;2022-07-10T02:58:38;14.20;99.90
19363;DHT22;9817;50.80926400;5.16316200;2022-07-10T03:01:03;14.20;99.90
19363;DHT22;9817;50.80926400;5.16316200;2022-07-10T03:03:30;14.20;99.90
19363;DHT22;9817;50.80926400;5.16316200;2022-07-10T03:05:56;14.10;99.90
19363;DHT22;9817;50.80926400;5.16316200;2022-07-10T03:08:22;14.00;99.90
19363;DHT22;9817;50.80926400;5.16316200;2022-07-10T03:10:47;14.10;99.90
19363;DHT22;9817;50.80926400;5.16316200;2022-07-10T03:13:13;14.00;99.90
19363;DHT22;9817;50.80926400;5.16316200;2022-07-10T03:15:38;14.00;99.90
19363;DHT22;9817;50.80926400;5.16316200;2022-07-10T03:18:04;14.00;99.90
19363;DHT22;9817;50.80926400;5.16316200;2022-07-10T03:20:30;14.00;99.90
19363;DHT22;9817;50.80926400;5.16316200;2022-07-10T03:22:55;13.90;99.90
19363;DHT22;9817;50.80926400;5.16316200;2022-07-10T03:25:21;13.90;99.90
19363;DHT22;9817;50.80926400;5.16316200;2022-07-10T03:27:47;13.90;99.90
19363;DHT22;9817;50.80926400;5.16316200;2022-07-10T03:30:12;13.90;99.90
19363;DHT22;9817;50.80926400;5.16316200;2022-07-10T03:32:38;13.90;99.90
19363;DHT22;9817;50.80926400;5.16316200;2022-07-10T03:35:04;14.00;99.90
19363;DHT22;9817;50.80926400;5.16316200;2022-07-10T03:37:30;13.80;99.90
19363;DHT22;9817;50.80926400;5.16316200;2022-07-10T03:39:55;13.90;99.90
19363;DHT22;9817;50.80926400;5.16316200;2022-07-10T03:42:21;13.90;99.90
19363;DHT22;9817;50.80926400;5.16316200;2022-07-10T03:44:46;13.90;99.90
19363;DHT22;9817;50.80926400;5.16316200;2022-07-10T03:47:12;14.00;99.90
19363;DHT22;9817;50.80926400;5.16316200;2022-07-10T03:49:38;13.90;99.90
19363;DHT22;9817;50.80926400;5.16316200;2022-07-10T03:52:04;13.90;99.90
19363;DHT22;9817;50.80926400;5.16316200;2022-07-10T03:54:30;13.80;99.90
19363;DHT22;9817;50.80926400;5.16316200;2022-07-10T03:56:57;13.70;99.90
19363;DHT22;9817;50.80926400;5.16316200;2022-07-10T03:59:41;13.70;99.90
19363;DHT22;9817;50.80926400;5.16316200;2022-07-10T04:02:07;13.70;99.90
19363;DHT22;9817;50.80926400;5.16316200;2022-07-10T04:04:33;13.80;99.90
19363;DHT22;9817;50.80926400;5.16316200;2022-07-10T04:06:58;13.80;99.90
19363;DHT22;9817;50.80926400;5.16316200;2022-07-10T04:09:24;13.90;99.90
19363;DHT22;9817;50.80926400;5.16316200;2022-07-10T04:11:50;13.90;99.90
19363;DHT22;9817;50.80926400;5.16316200;2022-07-10T04:14:15;13.90;99.90
19363;DHT22;9817;50.80926400;5.16316200;2022-07-10T04:16:41;13.90;99.90
19363;DHT22;9817;50.80926400;5.16316200;2022-07-10T04:19:07;14.00;99.90
19363;DHT22;9817;50.80926400;5.16316200;2022-07-10T04:21:32;14.10;99.90
19363;DHT22;9817;50.80926400;5.16316200;2022-07-10T04:23:58;14.10;99.90
19363;DHT22;9817;50.80926400;5.16316200;2022-07-10T04:26:23;14.10;99.90
19363;DHT22;9817;50.80926400;5.16316200;2022-07-10T04:28:49;14.10;99.90
19363;DHT22;9817;50.80926400;5.16316200;2022-07-10T04:31:15;14.00;99.90
19363;DHT22;9817;50.80926400;5.16316200;2022-07-10T04:33:40;14.10;99.90
19363;DHT22;9817;50.80926400;5.16316200;2022-07-10T04:36:06;14.00;99.90
19363;DHT22;9817;50.80926400;5.16316200;2022-07-10T04:38:32;14.00;99.90
19363;DHT22;9817;50.80926400;5.16316200;2022-07-10T04:40:58;14.10;99.90
19363;DHT22;9817;50.80926400;5.16316200;2022-07-10T04:43:23;14.10;99.90
19363;DHT22;9817;50.80926400;5.16316200;2022-07-10T04:45:49;14.20;99.90
19363;DHT22;9817;50.80926400;5.16316200;2022-07-10T04:48:15;14.20;99.90
19363;DHT22;9817;50.80926400;5.16316200;2022-07-10T04:50:40;14.30;99.90
19363;DHT22;9817;50.80926400;5.16316200;2022-07-10T04:53:06;14.40;99.90
19363;DHT22;9817;50.80926400;5.16316200;2022-07-10T04:55:32;14.50;99.90
19363;DHT22;9817;50.80926400;5.16316200;2022-07-10T04:57:58;14.50;99.90
19363;DHT22;9817;50.80926400;5.16316200;2022-07-10T05:00:23;14.60;99.90
19363;DHT22;9817;50.80926400;5.16316200;2022-07-10T05:02:49;14.60;99.90
19363;DHT22;9817;50.80926400;5.16316200;2022-07-10T05:05:15;14.70;99.90
19363;DHT22;9817;50.80926400;5.16316200;2022-07-10T05:07:41;14.80;99.90
19363;DHT22;9817;50.80926400;5.16316200;2022-07-10T05:10:07;14.90;99.90
19363;DHT22;9817;50.80926400;5.16316200;2022-07-10T05:12:32;15.10;99.90
19363;DHT22;9817;50.80926400;5.16316200;2022-07-10T05:14:58;15.20;99.90
19363;DHT22;9817;50.80926400;5.16316200;2022-07-10T05:17:25;15.40;99.90
19363;DHT22;9817;50.80926400;5.16316200;2022-07-10T05:19:52;15.70;99.90
19363;DHT22;9817;50.80926400;5.16316200;2022-07-10T05:22:19;16.00;99.90
19363;DHT22;9817;50.80926400;5.16316200;2022-07-10T05:24:44;16.10;99.90
19363;DHT22;9817;50.80926400;5.16316200;2022-07-10T05:27:10;16.30;99.90
19363;DHT22;9817;50.80926400;5.16316200;2022-07-10T05:29:35;16.50;99.90
19363;DHT22;9817;50.80926400;5.16316200;2022-07-10T05:32:01;16.70;99.90
19363;DHT22;9817;50.80926400;5.16316200;2022-07-10T05:34:27;16.80;99.90
19363;DHT22;9817;50.80926400;5.16316200;2022-07-10T05:36:52;16.80;99.90
19363;DHT22;9817;50.80926400;5.16316200;2022-07-10T05:39:18;16.90;99.90
19363;DHT22;9817;50.80926400;5.16316200;2022-07-10T05:41:44;16.90;99.90
19363;DHT22;9817;50.80926400;5.16316200;2022-07-10T05:44:09;17.00;99.90
19363;DHT22;9817;50.80926400;5.16316200;2022-07-10T05:46:35;16.90;99.90
19363;DHT22;9817;50.80926400;5.16316200;2022-07-10T05:49:00;16.90;99.90
19363;DHT22;9817;50.80926400;5.16316200;2022-07-10T05:51:26;17.00;99.90
19363;DHT22;9817;50.80926400;5.16316200;2022-07-10T05:53:52;17.00;99.90
19363;DHT22;9817;50.80926400;5.16316200;2022-07-10T05:56:18;17.10;99.90
19363;DHT22;9817;50.80926400;5.16316200;2022-07-10T05:58:43;17.20;99.90
19363;DHT22;9817;50.80926400;5.16316200;2022-07-10T06:01:09;17.20;99.90
19363;DHT22;9817;50.80926400;5.16316200;2022-07-10T06:03:34;17.30;99.90
19363;DHT22;9817;50.80926400;5.16316200;2022-07-10T06:06:00;17.40;99.90
19363;DHT22;9817;50.80926400;5.16316200;2022-07-10T06:08:26;17.50;99.90
19363;DHT22;9817;50.80926400;5.16316200;2022-07-10T06:10:52;17.70;99.90
19363;DHT22;9817;50.80926400;5.16316200;2022-07-10T06:13:18;17.80;99.90
19363;DHT22;9817;50.80926400;5.16316200;2022-07-10T06:15:43;17.80;99.90
19363;DHT22;9817;50.80926400;5.16316200;2022-07-10T06:18:09;17.80;99.90
19363;DHT22;9817;50.80926400;5.16316200;2022-07-10T06:20:35;17.80;99.90
19363;DHT22;9817;50.80926400;5.16316200;2022-07-10T06:23:00;17.90;99.90
19363;DHT22;9817;50.80926400;5.16316200;2022-07-10T06:25:26;18.10;99.90
19363;DHT22;9817;50.80926400;5.16316200;2022-07-10T06:27:51;18.20;99.90
19363;DHT22;9817;50.80926400;5.16316200;2022-07-10T06:30:17;18.30;99.90
19363;DHT22;9817;50.80926400;5.16316200;2022-07-10T06:32:43;18.60;99.90
19363;DHT22;9817;50.80926400;5.16316200;2022-07-10T06:35:09;18.80;99.90
19363;DHT22;9817;50.80926400;5.16316200;2022-07-10T06:37:35;19.40;99.90
19363;DHT22;9817;50.80926400;5.16316200;2022-07-10T06:40:01;20.00;99.90
19363;DHT22;9817;50.80926400;5.16316200;2022-07-10T06:42:26;20.70;99.90
19363;DHT22;9817;50.80926400;5.16316200;2022-07-10T06:44:52;21.20;99.90
19363;DHT22;9817;50.80926400;5.16316200;2022-07-10T06:47:18;21.20;99.90
19363;DHT22;9817;50.80926400;5.16316200;2022-07-10T06:50:07;21.00;99.90
19363;DHT22;9817;50.80926400;5.16316200;2022-07-10T06:52:34;20.40;99.90
19363;DHT22;9817;50.80926400;5.16316200;2022-07-10T06:55:01;19.90;99.90
19363;DHT22;9817;50.80926400;5.16316200;2022-07-10T06:57:27;19.40;99.90
19363;DHT22;9817;50.80926400;5.16316200;2022-07-10T06:59:53;19.10;99.90
19363;DHT22;9817;50.80926400;5.16316200;2022-07-10T07:02:19;19.00;99.90
19363;DHT22;9817;50.80926400;5.16316200;2022-07-10T07:04:45;18.90;99.90
19363;DHT22;9817;50.80926400;5.16316200;2022-07-10T07:07:14;18.80;99.90
19363;DHT22;9817;50.80926400;5.16316200;2022-07-10T07:09:41;18.70;99.90
19363;DHT22;9817;50.80926400;5.16316200;2022-07-10T07:12:08;18.70;99.90
19363;DHT22;9817;50.80926400;5.16316200;2022-07-10T07:14:34;18.70;99.90
19363;DHT22;9817;50.80926400;5.16316200;2022-07-10T07:17:00;18.90;99.90
19363;DHT22;9817;50.80926400;5.16316200;2022-07-10T07:19:34;19.20;99.90
19363;DHT22;9817;50.80926400;5.16316200;2022-07-10T07:22:20;20.10;99.90
19363;DHT22;9817;50.80926400;5.16316200;2022-07-10T07:25:05;21.20;99.90
19363;DHT22;9817;50.80926400;5.16316200;2022-07-10T07:27:33;22.30;99.90
19363;DHT22;9817;50.80926400;5.16316200;2022-07-10T07:30:05;23.10;99.90
19363;DHT22;9817;50.80926400;5.16316200;2022-07-10T07:32:32;23.60;99.90
19363;DHT22;9817;50.80926400;5.16316200;2022-07-10T07:34:58;24.90;99.90
19363;DHT22;9817;50.80926400;5.16316200;2022-07-10T07:37:48;26.70;99.90
19363;DHT22;9817;50.80926400;5.16316200;2022-07-10T07:40:18;29.10;94.30
19363;DHT22;9817;50.80926400;5.16316200;2022-07-10T07:42:46;30.70;87.30
19363;DHT22;9817;50.80926400;5.16316200;2022-07-10T07:45:12;32.20;81.80
19363;DHT22;9817;50.80926400;5.16316200;2022-07-10T07:47:45;34.20;74.40
19363;DHT22;9817;50.80926400;5.16316200;2022-07-10T07:50:12;35.80;68.50
19363;DHT22;9817;50.80926400;5.16316200;2022-07-10T07:52:38;37.80;61.40
19363;DHT22;9817;50.80926400;5.16316200;2022-07-10T07:55:04;38.60;56.80
19363;DHT22;9817;50.80926400;5.16316200;2022-07-10T07:57:29;39.30;55.10
19363;DHT22;9817;50.80926400;5.16316200;2022-07-10T07:59:55;40.40;53.20
19363;DHT22;9817;50.80926400;5.16316200;2022-07-10T08:02:21;41.20;50.70
19363;DHT22;9817;50.80926400;5.16316200;2022-07-10T08:04:47;41.10;49.80
19363;DHT22;9817;50.80926400;5.16316200;2022-07-10T08:07:13;41.60;48.90
19363;DHT22;9817;50.80926400;5.16316200;2022-07-10T08:09:39;41.80;47.80
19363;DHT22;9817;50.80926400;5.16316200;2022-07-10T08:12:05;42.20;47.30
19363;DHT22;9817;50.80926400;5.16316200;2022-07-10T08:14:31;42.40;46.10
19363;DHT22;9817;50.80926400;5.16316200;2022-07-10T08:16:56;42.80;44.80
19363;DHT22;9817;50.80926400;5.16316200;2022-07-10T08:19:22;43.00;43.60
19363;DHT22;9817;50.80926400;5.16316200;2022-07-10T08:21:47;42.80;43.30
19363;DHT22;9817;50.80926400;5.16316200;2022-07-10T08:24:13;41.50;44.10
19363;DHT22;9817;50.80926400;5.16316200;2022-07-10T08:26:40;40.60;45.30
19363;DHT22;9817;50.80926400;5.16316200;2022-07-10T08:29:06;38.70;45.90
19363;DHT22;9817;50.80926400;5.16316200;2022-07-10T08:31:32;38.50;47.00
19363;DHT22;9817;50.80926400;5.16316200;2022-07-10T08:33:59;37.80;47.50
19363;DHT22;9817;50.80926400;5.16316200;2022-07-10T08:36:25;37.60;48.30
19363;DHT22;9817;50.80926400;5.16316200;2022-07-10T08:38:52;36.20;49.20
19363;DHT22;9817;50.80926400;5.16316200;2022-07-10T08:41:24;35.90;50.90
19363;DHT22;9817;50.80926400;5.16316200;2022-07-10T08:43:50;37.60;49.50
19363;DHT22;9817;50.80926400;5.16316200;2022-07-10T08:46:16;38.30;49.20
19363;DHT22;9817;50.80926400;5.16316200;2022-07-10T08:48:46;36.70;50.20
19363;DHT22;9817;50.80926400;5.16316200;2022-07-10T08:51:20;35.50;51.00
19363;DHT22;9817;50.80926400;5.16316200;2022-07-10T08:53:49;34.30;52.80
19363;DHT22;9817;50.80926400;5.16316200;2022-07-10T08:56:16;33.70;54.10
19363;DHT22;9817;50.80926400;5.16316200;2022-07-10T08:58:42;33.90;53.40
19363;DHT22;9817;50.80926400;5.16316200;2022-07-10T09:01:09;33.00;54.10
19363;DHT22;9817;50.80926400;5.16316200;2022-07-10T09:03:35;32.00;56.10
19363;DHT22;9817;50.80926400;5.16316200;2022-07-10T09:06:04;30.90;57.70
19363;DHT22;9817;50.80926400;5.16316200;2022-07-10T09:08:30;30.20;59.30
19363;DHT22;9817;50.80926400;5.16316200;2022-07-10T09:11:18;30.00;60.00
19363;DHT22;9817;50.80926400;5.16316200;2022-07-10T09:13:54;29.80;60.90
19363;DHT22;9817;50.80926400;5.16316200;2022-07-10T09:18:47;29.90;63.10
19363;DHT22;9817;50.80926400;5.16316200;2022-07-10T09:21:12;29.50;62.60
19363;DHT22;9817;50.80926400;5.16316200;2022-07-10T09:23:38;28.90;64.30
19363;DHT22;9817;50.80926400;5.16316200;2022-07-10T09:26:04;28.40;65.50
19363;DHT22;9817;50.80926400;5.16316200;2022-07-10T09:28:30;28.10;67.20
19363;DHT22;9817;50.80926400;5.16316200;2022-07-10T09:30:56;27.80;67.80
19363;DHT22;9817;50.80926400;5.16316200;2022-07-10T09:33:25;27.60;67.10
19363;DHT22;9817;50.80926400;5.16316200;2022-07-10T09:36:08;27.70;68.40
19363;DHT22;9817;50.80926400;5.16316200;2022-07-10T09:41:15;28.70;67.40
19363;DHT22;9817;50.80926400;5.16316200;2022-07-10T09:46:19;28.10;68.20
19363;DHT22;9817;50.80926400;5.16316200;2022-07-10T09:48:45;27.90;68.20
19363;DHT22;9817;50.80926400;5.16316200;2022-07-10T09:51:11;27.60;69.60
19363;DHT22;9817;50.80926400;5.16316200;2022-07-10T09:53:42;27.60;70.90
19363;DHT22;9817;50.80926400;5.16316200;2022-07-10T09:56:11;28.20;70.70
19363;DHT22;9817;50.80926400;5.16316200;2022-07-10T09:58:37;28.40;69.00
19363;DHT22;9817;50.80926400;5.16316200;2022-07-10T10:01:07;27.80;71.00
19363;DHT22;9817;50.80926400;5.16316200;2022-07-10T10:03:38;27.50;72.20
19363;DHT22;9817;50.80926400;5.16316200;2022-07-10T10:06:16;27.70;71.30
19363;DHT22;9817;50.80926400;5.16316200;2022-07-10T10:11:13;28.10;71.10
19363;DHT22;9817;50.80926400;5.16316200;2022-07-10T10:13:39;28.00;71.60
19363;DHT22;9817;50.80926400;5.16316200;2022-07-10T10:16:06;27.70;71.80
19363;DHT22;9817;50.80926400;5.16316200;2022-07-10T10:18:34;27.70;71.00
19363;DHT22;9817;50.80926400;5.16316200;2022-07-10T10:21:01;28.00;71.90
19363;DHT22;9817;50.80926400;5.16316200;2022-07-10T10:23:30;28.40;72.50
19363;DHT22;9817;50.80926400;5.16316200;2022-07-10T10:25:56;28.60;69.50
19363;DHT22;9817;50.80926400;5.16316200;2022-07-10T10:28:24;28.80;70.80
19363;DHT22;9817;50.80926400;5.16316200;2022-07-10T10:30:59;29.00;70.10
19363;DHT22;9817;50.80926400;5.16316200;2022-07-10T10:35:58;29.10;70.60
19363;DHT22;9817;50.80926400;5.16316200;2022-07-10T10:38:24;28.70;69.50
19363;DHT22;9817;50.80926400;5.16316200;2022-07-10T10:40:50;28.40;71.00
19363;DHT22;9817;50.80926400;5.16316200;2022-07-10T10:43:24;28.00;73.60
19363;DHT22;9817;50.80926400;5.16316200;2022-07-10T10:45:51;27.60;73.70
19363;DHT22;9817;50.80926400;5.16316200;2022-07-10T10:48:19;27.20;75.50
19363;DHT22;9817;50.80926400;5.16316200;2022-07-10T10:53:23;27.10;76.90
19363;DHT22;9817;50.80926400;5.16316200;2022-07-10T10:58:42;26.50;77.90
19363;DHT22;9817;50.80926400;5.16316200;2022-07-10T11:12:06;27.60;77.20
19363;DHT22;9817;50.80926400;5.16316200;2022-07-10T11:14:34;27.90;77.40
19363;DHT22;9817;50.80926400;5.16316200;2022-07-10T11:17:02;27.70;77.90
19363;DHT22;9817;50.80926400;5.16316200;2022-07-10T11:19:29;27.20;77.30
19363;DHT22;9817;50.80926400;5.16316200;2022-07-10T11:30:14;26.00;82.80
19363;DHT22;9817;50.80926400;5.16316200;2022-07-10T11:32:40;25.70;82.70
19363;DHT22;9817;50.80926400;5.16316200;2022-07-10T11:35:12;25.20;86.00
19363;DHT22;9817;50.80926400;5.16316200;2022-07-10T11:38:04;25.00;86.50
19363;DHT22;9817;50.80926400;5.16316200;2022-07-10T11:40:30;25.00;87.50
19363;DHT22;9817;50.80926400;5.16316200;2022-07-10T11:42:56;25.20;90.00
19363;DHT22;9817;50.80926400;5.16316200;2022-07-10T11:47:52;25.80;86.30
19363;DHT22;9817;50.80926400;5.16316200;2022-07-10T11:50:18;25.90;86.30
19363;DHT22;9817;50.80926400;5.16316200;2022-07-10T11:52:45;25.70;87.00
19363;DHT22;9817;50.80926400;5.16316200;2022-07-10T11:55:16;25.90;86.40
19363;DHT22;9817;50.80926400;5.16316200;2022-07-10T11:57:42;25.90;86.30
19363;DHT22;9817;50.80926400;5.16316200;2022-07-10T12:00:30;25.90;85.90
19363;DHT22;9817;50.80926400;5.16316200;2022-07-10T12:02:57;26.10;86.00
19363;DHT22;9817;50.80926400;5.16316200;2022-07-10T12:05:40;26.40;85.50
19363;DHT22;9817;50.80926400;5.16316200;2022-07-10T12:08:06;26.60;86.30
19363;DHT22;9817;50.80926400;5.16316200;2022-07-10T12:10:34;26.70;83.00
19363;DHT22;9817;50.80926400;5.16316200;2022-07-10T12:13:10;27.00;83.90
19363;DHT22;9817;50.80926400;5.16316200;2022-07-10T12:15:41;27.30;83.60
19363;DHT22;9817;50.80926400;5.16316200;2022-07-10T12:18:18;27.50;83.10
19363;DHT22;9817;50.80926400;5.16316200;2022-07-10T12:20:45;27.30;84.40
19363;DHT22;9817;50.80926400;5.16316200;2022-07-10T12:23:16;27.80;82.20
19363;DHT22;9817;50.80926400;5.16316200;2022-07-10T12:25:44;28.10;81.60
19363;DHT22;9817;50.80926400;5.16316200;2022-07-10T12:28:09;27.80;80.30
19363;DHT22;9817;50.80926400;5.16316200;2022-07-10T12:30:46;27.70;81.50
19363;DHT22;9817;50.80926400;5.16316200;2022-07-10T12:33:19;27.80;82.40
19363;DHT22;9817;50.80926400;5.16316200;2022-07-10T12:35:56;27.90;81.30
19363;DHT22;9817;50.80926400;5.16316200;2022-07-10T12:38:26;27.90;82.10
19363;DHT22;9817;50.80926400;5.16316200;2022-07-10T12:41:12;28.20;82.10
19363;DHT22;9817;50.80926400;5.16316200;2022-07-10T12:43:39;27.90;81.70
19363;DHT22;9817;50.80926400;5.16316200;2022-07-10T12:46:20;28.10;81.50
19363;DHT22;9817;50.80926400;5.16316200;2022-07-10T12:51:48;28.00;81.60
19363;DHT22;9817;50.80926400;5.16316200;2022-07-10T12:56:59;27.30;84.90
19363;DHT22;9817;50.80926400;5.16316200;2022-07-10T12:59:26;27.40;85.80
19363;DHT22;9817;50.80926400;5.16316200;2022-07-10T13:01:52;27.60;84.80
19363;DHT22;9817;50.80926400;5.16316200;2022-07-10T13:04:25;27.60;84.50
19363;DHT22;9817;50.80926400;5.16316200;2022-07-10T13:06:52;27.60;84.50
19363;DHT22;9817;50.80926400;5.16316200;2022-07-10T13:09:19;27.40;84.20
19363;DHT22;9817;50.80926400;5.16316200;2022-07-10T13:11:45;27.20;84.40
19363;DHT22;9817;50.80926400;5.16316200;2022-07-10T13:14:11;27.20;84.70
19363;DHT22;9817;50.80926400;5.16316200;2022-07-10T13:16:36;27.20;86.10
19363;DHT22;9817;50.80926400;5.16316200;2022-07-10T13:19:02;27.10;84.50
19363;DHT22;9817;50.80926400;5.16316200;2022-07-10T13:21:28;27.10;86.50
19363;DHT22;9817;50.80926400;5.16316200;2022-07-10T13:23:53;26.90;85.90
19363;DHT22;9817;50.80926400;5.16316200;2022-07-10T13:26:19;26.90;84.70
19363;DHT22;9817;50.80926400;5.16316200;2022-07-10T13:28:44;27.00;87.30
19363;DHT22;9817;50.80926400;5.16316200;2022-07-10T13:31:10;27.00;86.80
19363;DHT22;9817;50.80926400;5.16316200;2022-07-10T13:33:38;27.00;85.00
19363;DHT22;9817;50.80926400;5.16316200;2022-07-10T13:36:04;27.00;85.50
19363;DHT22;9817;50.80926400;5.16316200;2022-07-10T13:38:29;27.20;88.10
19363;DHT22;9817;50.80926400;5.16316200;2022-07-10T13:40:55;27.50;88.40
19363;DHT22;9817;50.80926400;5.16316200;2022-07-10T13:43:21;27.80;84.80
19363;DHT22;9817;50.80926400;5.16316200;2022-07-10T13:45:52;27.70;84.80
19363;DHT22;9817;50.80926400;5.16316200;2022-07-10T13:48:18;27.70;87.30
19363;DHT22;9817;50.80926400;5.16316200;2022-07-10T13:50:45;27.50;87.40
19363;DHT22;9817;50.80926400;5.16316200;2022-07-10T13:53:16;27.50;85.20
19363;DHT22;9817;50.80926400;5.16316200;2022-07-10T13:55:42;27.30;85.30
19363;DHT22;9817;50.80926400;5.16316200;2022-07-10T13:58:09;27.80;83.60
19363;DHT22;9817;50.80926400;5.16316200;2022-07-10T14:00:35;28.00;83.70
19363;DHT22;9817;50.80926400;5.16316200;2022-07-10T14:03:02;28.00;83.00
19363;DHT22;9817;50.80926400;5.16316200;2022-07-10T14:05:28;27.80;84.50
19363;DHT22;9817;50.80926400;5.16316200;2022-07-10T14:07:54;27.70;86.40
19363;DHT22;9817;50.80926400;5.16316200;2022-07-10T14:10:19;27.60;85.50
19363;DHT22;9817;50.80926400;5.16316200;2022-07-10T14:12:45;27.80;85.70
19363;DHT22;9817;50.80926400;5.16316200;2022-07-10T14:15:11;28.00;86.10
19363;DHT22;9817;50.80926400;5.16316200;2022-07-10T14:17:36;28.10;86.60
19363;DHT22;9817;50.80926400;5.16316200;2022-07-10T14:20:02;28.10;85.90